sensor_id;sensor_type;location;lat;lon;timestamp;P1;durP1;ratioP1;P2;durP2;ratioP2
72904;SDS011;61048;52.162;4.516;2022-12-10T00:01:36;14.43;;;6.63;;
72904;SDS011;61048;52.162;4.516;2022-12-10T00:04:04;13.65;;;7.20;;
72904;SDS011;61048;52.162;4.516;2022-12-10T00:06:32;13.68;;;7.72;;
72904;SDS011;61048;52.162;4.516;2022-12-10T00:09:01;15.25;;;7.40;;
72904;SDS011;61048;52.162;4.516;2022-12-10T00:11:29;14.95;;;8.38;;
72904;SDS011;61048;52.162;4.516;2022-12-10T00:13:57;16.58;;;7.47;;
72904;SDS011;61048;52.162;4.516;2022-12-10T00:16:25;14.25;;;7.13;;
72904;SDS011;61048;52.162;4.516;2022-12-10T00:18:53;15.43;;;6.88;;
72904;SDS011;61048;52.162;4.516;2022-12-10T00:21:21;14.70;;;7.82;;
72904;SDS011;61048;52.162;4.516;2022-12-10T00:23:48;16.15;;;7.15;;
72904;SDS011;61048;52.162;4.516;2022-12-10T00:26:18;16.15;;;7.35;;
72904;SDS011;61048;52.162;4.516;2022-12-10T00:28:45;15.15;;;7.35;;
72904;SDS011;61048;52.162;4.516;2022-12-10T00:31:13;13.30;;;7.20;;
72904;SDS011;61048;52.162;4.516;2022-12-10T00:33:41;14.48;;;6.93;;
72904;SDS011;61048;52.162;4.516;2022-12-10T00:36:10;13.68;;;7.15;;
72904;SDS011;61048;52.162;4.516;2022-12-10T00:38:38;15.00;;;7.50;;
72904;SDS011;61048;52.162;4.516;2022-12-10T00:41:05;17.83;;;6.00;;
72904;SDS011;61048;52.162;4.516;2022-12-10T00:43:34;16.25;;;7.13;;
72904;SDS011;61048;52.162;4.516;2022-12-10T00:46:01;16.85;;;7.18;;
72904;SDS011;61048;52.162;4.516;2022-12-10T00:48:29;13.25;;;6.75;;
72904;SDS011;61048;52.162;4.516;2022-12-10T00:50:57;14.65;;;7.30;;
72904;SDS011;61048;52.162;4.516;2022-12-10T00:53:24;13.13;;;6.28;;
72904;SDS011;61048;52.162;4.516;2022-12-10T00:55:52;19.20;;;7.55;;
72904;SDS011;61048;52.162;4.516;2022-12-10T00:58:20;13.20;;;6.72;;
72904;SDS011;61048;52.162;4.516;2022-12-10T01:00:48;16.63;;;6.68;;
72904;SDS011;61048;52.162;4.516;2022-12-10T01:03:15;15.45;;;7.10;;
72904;SDS011;61048;52.162;4.516;2022-12-10T01:05:43;12.00;;;5.70;;
72904;SDS011;61048;52.162;4.516;2022-12-10T01:08:10;13.82;;;6.95;;
72904;SDS011;61048;52.162;4.516;2022-12-10T01:10:37;12.25;;;6.43;;
72904;SDS011;61048;52.162;4.516;2022-12-10T01:13:04;14.15;;;6.60;;
72904;SDS011;61048;52.162;4.516;2022-12-10T01:15:32;14.38;;;6.85;;
72904;SDS011;61048;52.162;4.516;2022-12-10T01:18:04;12.05;;;5.82;;
72904;SDS011;61048;52.162;4.516;2022-12-10T01:20:34;14.40;;;6.63;;
72904;SDS011;61048;52.162;4.516;2022-12-10T01:23:01;12.77;;;6.10;;
72904;SDS011;61048;52.162;4.516;2022-12-10T01:25:28;12.75;;;6.47;;
72904;SDS011;61048;52.162;4.516;2022-12-10T01:27:56;11.35;;;6.40;;
72904;SDS011;61048;52.162;4.516;2022-12-10T01:30:23;13.23;;;6.25;;
72904;SDS011;61048;52.162;4.516;2022-12-10T01:32:50;13.45;;;6.47;;
72904;SDS011;61048;52.162;4.516;2022-12-10T01:35:19;12.30;;;6.00;;
72904;SDS011;61048;52.162;4.516;2022-12-10T01:37:46;11.82;;;6.30;;
72904;SDS011;61048;52.162;4.516;2022-12-10T01:40:13;11.25;;;5.70;;
72904;SDS011;61048;52.162;4.516;2022-12-10T01:42:40;12.88;;;6.18;;
72904;SDS011;61048;52.162;4.516;2022-12-10T01:45:09;12.15;;;6.10;;
72904;SDS011;61048;52.162;4.516;2022-12-10T01:47:37;13.05;;;5.97;;
72904;SDS011;61048;52.162;4.516;2022-12-10T01:50:06;12.25;;;6.28;;
72904;SDS011;61048;52.162;4.516;2022-12-10T01:52:34;10.55;;;5.50;;
72904;SDS011;61048;52.162;4.516;2022-12-10T01:55:05;11.63;;;5.75;;
72904;SDS011;61048;52.162;4.516;2022-12-10T01:57:33;13.10;;;5.88;;
72904;SDS011;61048;52.162;4.516;2022-12-10T02:00:01;11.73;;;6.28;;
72904;SDS011;61048;52.162;4.516;2022-12-10T02:02:32;11.23;;;5.53;;
72904;SDS011;61048;52.162;4.516;2022-12-10T02:05:04;11.35;;;6.05;;
72904;SDS011;61048;52.162;4.516;2022-12-10T02:07:35;13.32;;;5.88;;
72904;SDS011;61048;52.162;4.516;2022-12-10T02:10:06;9.80;;;5.32;;
72904;SDS011;61048;52.162;4.516;2022-12-10T02:12:37;9.82;;;5.47;;
72904;SDS011;61048;52.162;4.516;2022-12-10T02:15:06;11.85;;;6.13;;
72904;SDS011;61048;52.162;4.516;2022-12-10T02:17:37;11.10;;;5.05;;
72904;SDS011;61048;52.162;4.516;2022-12-10T02:20:06;10.63;;;5.43;;
72904;SDS011;61048;52.162;4.516;2022-12-10T02:22:36;10.65;;;5.53;;
72904;SDS011;61048;52.162;4.516;2022-12-10T02:25:06;10.80;;;5.10;;
72904;SDS011;61048;52.162;4.516;2022-12-10T02:27:35;10.32;;;5.53;;
72904;SDS011;61048;52.162;4.516;2022-12-10T02:30:08;11.48;;;6.53;;
72904;SDS011;61048;52.162;4.516;2022-12-10T02:32:36;10.25;;;5.00;;
72904;SDS011;61048;52.162;4.516;2022-12-10T02:35:06;10.23;;;5.25;;
72904;SDS011;61048;52.162;4.516;2022-12-10T02:37:34;11.68;;;5.72;;
72904;SDS011;61048;52.162;4.516;2022-12-10T02:40:03;11.70;;;5.25;;
72904;SDS011;61048;52.162;4.516;2022-12-10T02:42:31;10.20;;;5.40;;
72904;SDS011;61048;52.162;4.516;2022-12-10T02:45:00;9.82;;;5.03;;
72904;SDS011;61048;52.162;4.516;2022-12-10T02:47:29;11.45;;;6.63;;
72904;SDS011;61048;52.162;4.516;2022-12-10T02:49:57;11.55;;;5.05;;
72904;SDS011;61048;52.162;4.516;2022-12-10T02:52:25;11.10;;;5.20;;
72904;SDS011;61048;52.162;4.516;2022-12-10T02:54:52;9.30;;;4.82;;
72904;SDS011;61048;52.162;4.516;2022-12-10T02:57:25;10.10;;;5.13;;
72904;SDS011;61048;52.162;4.516;2022-12-10T02:59:58;10.63;;;5.30;;
72904;SDS011;61048;52.162;4.516;2022-12-10T03:02:31;11.00;;;5.18;;
72904;SDS011;61048;52.162;4.516;2022-12-10T03:05:02;9.20;;;4.88;;
72904;SDS011;61048;52.162;4.516;2022-12-10T03:07:32;11.52;;;4.97;;
72904;SDS011;61048;52.162;4.516;2022-12-10T03:10:02;9.95;;;5.18;;
72904;SDS011;61048;52.162;4.516;2022-12-10T03:12:31;9.68;;;5.50;;
72904;SDS011;61048;52.162;4.516;2022-12-10T03:15:02;8.68;;;4.65;;
72904;SDS011;61048;52.162;4.516;2022-12-10T03:17:31;9.80;;;4.85;;
72904;SDS011;61048;52.162;4.516;2022-12-10T03:19:58;9.07;;;5.07;;
72904;SDS011;61048;52.162;4.516;2022-12-10T03:22:27;8.93;;;4.60;;
72904;SDS011;61048;52.162;4.516;2022-12-10T03:24:55;9.13;;;4.75;;
72904;SDS011;61048;52.162;4.516;2022-12-10T03:27:22;8.50;;;4.53;;
72904;SDS011;61048;52.162;4.516;2022-12-10T03:29:50;8.35;;;4.80;;
72904;SDS011;61048;52.162;4.516;2022-12-10T03:32:18;8.88;;;4.75;;
72904;SDS011;61048;52.162;4.516;2022-12-10T03:34:47;8.32;;;5.22;;
72904;SDS011;61048;52.162;4.516;2022-12-10T03:37:15;9.02;;;4.93;;
72904;SDS011;61048;52.162;4.516;2022-12-10T03:39:42;10.68;;;5.97;;
72904;SDS011;61048;52.162;4.516;2022-12-10T03:42:10;9.70;;;4.65;;
72904;SDS011;61048;52.162;4.516;2022-12-10T03:44:37;9.02;;;4.57;;
72904;SDS011;61048;52.162;4.516;2022-12-10T03:47:06;8.23;;;4.00;;
72904;SDS011;61048;52.162;4.516;2022-12-10T03:49:34;8.65;;;4.13;;
72904;SDS011;61048;52.162;4.516;2022-12-10T03:52:03;9.38;;;4.63;;
72904;SDS011;61048;52.162;4.516;2022-12-10T03:54:30;8.77;;;4.55;;
72904;SDS011;61048;52.162;4.516;2022-12-10T03:56:57;7.55;;;4.43;;
72904;SDS011;61048;52.162;4.516;2022-12-10T03:59:24;8.38;;;4.47;;
72904;SDS011;61048;52.162;4.516;2022-12-10T04:01:52;8.10;;;4.28;;
72904;SDS011;61048;52.162;4.516;2022-12-10T04:04:20;8.13;;;5.07;;
72904;SDS011;61048;52.162;4.516;2022-12-10T04:06:47;9.15;;;4.35;;
72904;SDS011;61048;52.162;4.516;2022-12-10T04:09:16;7.63;;;3.70;;
72904;SDS011;61048;52.162;4.516;2022-12-10T04:11:43;7.65;;;4.28;;
72904;SDS011;61048;52.162;4.516;2022-12-10T04:14:11;8.15;;;4.88;;
72904;SDS011;61048;52.162;4.516;2022-12-10T04:16:57;6.47;;;3.88;;
72904;SDS011;61048;52.162;4.516;2022-12-10T04:19:24;8.93;;;4.38;;
72904;SDS011;61048;52.162;4.516;2022-12-10T04:21:52;6.82;;;4.15;;
72904;SDS011;61048;52.162;4.516;2022-12-10T04:24:37;8.80;;;4.07;;
72904;SDS011;61048;52.162;4.516;2022-12-10T04:27:23;8.35;;;4.43;;
72904;SDS011;61048;52.162;4.516;2022-12-10T04:29:51;6.70;;;3.78;;
72904;SDS011;61048;52.162;4.516;2022-12-10T04:32:19;7.65;;;3.92;;
72904;SDS011;61048;52.162;4.516;2022-12-10T04:34:47;7.45;;;3.97;;
72904;SDS011;61048;52.162;4.516;2022-12-10T04:37:14;6.45;;;3.70;;
72904;SDS011;61048;52.162;4.516;2022-12-10T04:39:43;7.43;;;3.78;;
72904;SDS011;61048;52.162;4.516;2022-12-10T04:42:10;6.97;;;3.92;;
72904;SDS011;61048;52.162;4.516;2022-12-10T04:44:37;6.97;;;3.85;;
72904;SDS011;61048;52.162;4.516;2022-12-10T04:47:05;6.45;;;3.72;;
72904;SDS011;61048;52.162;4.516;2022-12-10T04:49:33;7.00;;;3.92;;
72904;SDS011;61048;52.162;4.516;2022-12-10T04:52:00;8.23;;;4.60;;
72904;SDS011;61048;52.162;4.516;2022-12-10T04:54:27;7.78;;;4.00;;
72904;SDS011;61048;52.162;4.516;2022-12-10T04:56:56;7.78;;;3.63;;
72904;SDS011;61048;52.162;4.516;2022-12-10T04:59:23;6.18;;;3.65;;
72904;SDS011;61048;52.162;4.516;2022-12-10T05:01:50;6.25;;;3.42;;
72904;SDS011;61048;52.162;4.516;2022-12-10T05:04:18;7.05;;;3.85;;
72904;SDS011;61048;52.162;4.516;2022-12-10T05:06:47;6.50;;;3.65;;
72904;SDS011;61048;52.162;4.516;2022-12-10T05:09:14;7.18;;;4.72;;
72904;SDS011;61048;52.162;4.516;2022-12-10T05:11:41;6.70;;;3.47;;
72904;SDS011;61048;52.162;4.516;2022-12-10T05:14:11;6.05;;;3.53;;
72904;SDS011;61048;52.162;4.516;2022-12-10T05:16:39;6.60;;;3.70;;
72904;SDS011;61048;52.162;4.516;2022-12-10T05:19:06;7.00;;;3.45;;
72904;SDS011;61048;52.162;4.516;2022-12-10T05:21:33;7.15;;;3.80;;
72904;SDS011;61048;52.162;4.516;2022-12-10T05:24:18;6.63;;;3.88;;
72904;SDS011;61048;52.162;4.516;2022-12-10T05:26:45;6.88;;;3.83;;
72904;SDS011;61048;52.162;4.516;2022-12-10T05:29:17;6.28;;;3.80;;
72904;SDS011;61048;52.162;4.516;2022-12-10T05:31:45;6.32;;;4.03;;
72904;SDS011;61048;52.162;4.516;2022-12-10T05:34:12;6.93;;;4.13;;
72904;SDS011;61048;52.162;4.516;2022-12-10T05:36:39;7.00;;;4.05;;
72904;SDS011;61048;52.162;4.516;2022-12-10T05:39:06;6.03;;;3.50;;
72904;SDS011;61048;52.162;4.516;2022-12-10T05:41:34;6.57;;;3.67;;
72904;SDS011;61048;52.162;4.516;2022-12-10T05:44:02;6.47;;;3.80;;
72904;SDS011;61048;52.162;4.516;2022-12-10T05:46:31;6.72;;;3.70;;
72904;SDS011;61048;52.162;4.516;2022-12-10T05:48:59;6.38;;;3.22;;
72904;SDS011;61048;52.162;4.516;2022-12-10T05:51:27;6.10;;;3.40;;
72904;SDS011;61048;52.162;4.516;2022-12-10T05:53:55;6.72;;;3.45;;
72904;SDS011;61048;52.162;4.516;2022-12-10T05:56:23;5.65;;;3.47;;
72904;SDS011;61048;52.162;4.516;2022-12-10T05:58:52;6.68;;;3.28;;
72904;SDS011;61048;52.162;4.516;2022-12-10T06:01:20;5.93;;;3.53;;
72904;SDS011;61048;52.162;4.516;2022-12-10T06:03:50;6.43;;;3.50;;
72904;SDS011;61048;52.162;4.516;2022-12-10T06:06:19;6.88;;;4.45;;
72904;SDS011;61048;52.162;4.516;2022-12-10T06:08:47;6.82;;;3.65;;
72904;SDS011;61048;52.162;4.516;2022-12-10T06:11:15;7.75;;;4.13;;
72904;SDS011;61048;52.162;4.516;2022-12-10T06:13:42;6.75;;;3.40;;
72904;SDS011;61048;52.162;4.516;2022-12-10T06:16:10;7.50;;;3.90;;
72904;SDS011;61048;52.162;4.516;2022-12-10T06:18:37;8.48;;;4.30;;
72904;SDS011;61048;52.162;4.516;2022-12-10T06:21:07;7.90;;;4.30;;
72904;SDS011;61048;52.162;4.516;2022-12-10T06:23:34;6.65;;;3.50;;
72904;SDS011;61048;52.162;4.516;2022-12-10T06:26:03;9.90;;;3.80;;
72904;SDS011;61048;52.162;4.516;2022-12-10T06:28:31;5.35;;;2.97;;
72904;SDS011;61048;52.162;4.516;2022-12-10T06:30:58;8.25;;;3.78;;
72904;SDS011;61048;52.162;4.516;2022-12-10T06:33:25;7.00;;;3.35;;
72904;SDS011;61048;52.162;4.516;2022-12-10T06:35:53;6.60;;;3.33;;
72904;SDS011;61048;52.162;4.516;2022-12-10T06:38:21;8.13;;;3.78;;
72904;SDS011;61048;52.162;4.516;2022-12-10T06:40:49;6.35;;;3.00;;
72904;SDS011;61048;52.162;4.516;2022-12-10T06:43:16;6.25;;;3.53;;
72904;SDS011;61048;52.162;4.516;2022-12-10T06:45:43;8.85;;;3.33;;
72904;SDS011;61048;52.162;4.516;2022-12-10T06:48:10;6.50;;;3.45;;
72904;SDS011;61048;52.162;4.516;2022-12-10T06:50:38;6.10;;;3.38;;
72904;SDS011;61048;52.162;4.516;2022-12-10T06:53:06;5.30;;;3.03;;
72904;SDS011;61048;52.162;4.516;2022-12-10T06:55:34;5.28;;;3.08;;
72904;SDS011;61048;52.162;4.516;2022-12-10T06:58:02;6.28;;;3.10;;
72904;SDS011;61048;52.162;4.516;2022-12-10T07:00:29;6.25;;;3.08;;
72904;SDS011;61048;52.162;4.516;2022-12-10T07:02:57;6.78;;;4.28;;
72904;SDS011;61048;52.162;4.516;2022-12-10T07:05:24;6.13;;;3.17;;
72904;SDS011;61048;52.162;4.516;2022-12-10T07:07:51;6.40;;;2.92;;
72904;SDS011;61048;52.162;4.516;2022-12-10T07:10:18;5.22;;;2.95;;
72904;SDS011;61048;52.162;4.516;2022-12-10T07:12:47;5.85;;;2.92;;
72904;SDS011;61048;52.162;4.516;2022-12-10T07:15:14;7.50;;;3.60;;
72904;SDS011;61048;52.162;4.516;2022-12-10T07:17:41;5.63;;;2.88;;
72904;SDS011;61048;52.162;4.516;2022-12-10T07:20:09;7.68;;;2.95;;
72904;SDS011;61048;52.162;4.516;2022-12-10T07:22:37;5.15;;;2.60;;
72904;SDS011;61048;52.162;4.516;2022-12-10T07:25:05;5.55;;;2.85;;
72904;SDS011;61048;52.162;4.516;2022-12-10T07:27:32;5.85;;;2.90;;
72904;SDS011;61048;52.162;4.516;2022-12-10T07:30:01;6.13;;;2.97;;
72904;SDS011;61048;52.162;4.516;2022-12-10T07:32:28;6.60;;;2.97;;
72904;SDS011;61048;52.162;4.516;2022-12-10T07:34:55;6.18;;;3.35;;
72904;SDS011;61048;52.162;4.516;2022-12-10T07:37:22;5.70;;;2.72;;
72904;SDS011;61048;52.162;4.516;2022-12-10T07:39:50;7.07;;;3.10;;
72904;SDS011;61048;52.162;4.516;2022-12-10T07:42:17;6.20;;;3.55;;
72904;SDS011;61048;52.162;4.516;2022-12-10T07:44:45;5.30;;;2.70;;
72904;SDS011;61048;52.162;4.516;2022-12-10T07:47:13;6.50;;;3.33;;
72904;SDS011;61048;52.162;4.516;2022-12-10T07:49:40;4.93;;;2.42;;
72904;SDS011;61048;52.162;4.516;2022-12-10T07:52:08;5.60;;;3.08;;
72904;SDS011;61048;52.162;4.516;2022-12-10T07:54:35;6.10;;;3.08;;
72904;SDS011;61048;52.162;4.516;2022-12-10T07:57:02;5.00;;;2.40;;
72904;SDS011;61048;52.162;4.516;2022-12-10T07:59:30;6.57;;;2.90;;
72904;SDS011;61048;52.162;4.516;2022-12-10T08:01:57;5.22;;;2.45;;
72904;SDS011;61048;52.162;4.516;2022-12-10T08:04:26;4.95;;;2.70;;
72904;SDS011;61048;52.162;4.516;2022-12-10T08:06:54;5.78;;;2.90;;
72904;SDS011;61048;52.162;4.516;2022-12-10T08:09:22;4.55;;;3.13;;
72904;SDS011;61048;52.162;4.516;2022-12-10T08:11:50;6.00;;;2.90;;
72904;SDS011;61048;52.162;4.516;2022-12-10T08:14:17;5.20;;;2.72;;
72904;SDS011;61048;52.162;4.516;2022-12-10T08:16:44;6.25;;;3.22;;
72904;SDS011;61048;52.162;4.516;2022-12-10T08:19:11;5.50;;;2.78;;
72904;SDS011;61048;52.162;4.516;2022-12-10T08:21:40;5.10;;;2.60;;
72904;SDS011;61048;52.162;4.516;2022-12-10T08:24:07;6.88;;;2.90;;
72904;SDS011;61048;52.162;4.516;2022-12-10T08:26:34;5.90;;;3.10;;
72904;SDS011;61048;52.162;4.516;2022-12-10T08:29:02;6.40;;;3.20;;
72904;SDS011;61048;52.162;4.516;2022-12-10T08:31:29;5.20;;;2.55;;
72904;SDS011;61048;52.162;4.516;2022-12-10T08:33:56;5.85;;;2.92;;
72904;SDS011;61048;52.162;4.516;2022-12-10T08:36:23;5.30;;;2.65;;
72904;SDS011;61048;52.162;4.516;2022-12-10T08:38:52;6.25;;;2.53;;
72904;SDS011;61048;52.162;4.516;2022-12-10T08:41:21;5.50;;;2.80;;
72904;SDS011;61048;52.162;4.516;2022-12-10T08:43:48;4.95;;;2.40;;
72904;SDS011;61048;52.162;4.516;2022-12-10T08:46:17;5.15;;;2.75;;
72904;SDS011;61048;52.162;4.516;2022-12-10T08:48:44;4.82;;;2.45;;
72904;SDS011;61048;52.162;4.516;2022-12-10T08:51:13;4.47;;;2.45;;
72904;SDS011;61048;52.162;4.516;2022-12-10T08:53:41;4.35;;;2.22;;
72904;SDS011;61048;52.162;4.516;2022-12-10T08:56:10;5.13;;;2.47;;
72904;SDS011;61048;52.162;4.516;2022-12-10T08:58:38;4.95;;;2.50;;
72904;SDS011;61048;52.162;4.516;2022-12-10T09:01:05;6.18;;;2.95;;
72904;SDS011;61048;52.162;4.516;2022-12-10T09:03:33;5.57;;;2.90;;
72904;SDS011;61048;52.162;4.516;2022-12-10T09:06:04;4.72;;;2.22;;
72904;SDS011;61048;52.162;4.516;2022-12-10T09:08:31;6.10;;;2.67;;
72904;SDS011;61048;52.162;4.516;2022-12-10T09:10:58;5.82;;;2.80;;
72904;SDS011;61048;52.162;4.516;2022-12-10T09:13:31;5.57;;;2.60;;
72904;SDS011;61048;52.162;4.516;2022-12-10T09:15:59;5.60;;;2.97;;
72904;SDS011;61048;52.162;4.516;2022-12-10T09:18:26;5.63;;;2.30;;
72904;SDS011;61048;52.162;4.516;2022-12-10T09:20:53;4.63;;;2.22;;
72904;SDS011;61048;52.162;4.516;2022-12-10T09:23:20;5.93;;;2.63;;
72904;SDS011;61048;52.162;4.516;2022-12-10T09:25:48;4.78;;;2.58;;
72904;SDS011;61048;52.162;4.516;2022-12-10T09:28:15;5.15;;;2.58;;
72904;SDS011;61048;52.162;4.516;2022-12-10T09:30:44;5.95;;;3.13;;
72904;SDS011;61048;52.162;4.516;2022-12-10T09:33:11;5.32;;;2.55;;
72904;SDS011;61048;52.162;4.516;2022-12-10T09:35:41;6.35;;;3.60;;
72904;SDS011;61048;52.162;4.516;2022-12-10T09:38:08;5.95;;;2.78;;
72904;SDS011;61048;52.162;4.516;2022-12-10T09:40:37;6.35;;;3.67;;
72904;SDS011;61048;52.162;4.516;2022-12-10T09:43:07;6.25;;;2.90;;
72904;SDS011;61048;52.162;4.516;2022-12-10T09:45:39;6.22;;;2.92;;
72904;SDS011;61048;52.162;4.516;2022-12-10T09:48:13;7.10;;;2.78;;
72904;SDS011;61048;52.162;4.516;2022-12-10T09:50:45;9.63;;;2.78;;
72904;SDS011;61048;52.162;4.516;2022-12-10T09:53:15;6.90;;;3.53;;
72904;SDS011;61048;52.162;4.516;2022-12-10T09:55:45;8.00;;;3.28;;
72904;SDS011;61048;52.162;4.516;2022-12-10T09:58:13;6.97;;;3.20;;
72904;SDS011;61048;52.162;4.516;2022-12-10T10:00:42;7.03;;;3.60;;
72904;SDS011;61048;52.162;4.516;2022-12-10T10:03:13;9.93;;;3.80;;
72904;SDS011;61048;52.162;4.516;2022-12-10T10:05:42;10.18;;;4.22;;
72904;SDS011;61048;52.162;4.516;2022-12-10T10:08:12;11.23;;;5.35;;
72904;SDS011;61048;52.162;4.516;2022-12-10T10:10:40;11.48;;;3.85;;
72904;SDS011;61048;52.162;4.516;2022-12-10T10:13:12;13.93;;;4.75;;
72904;SDS011;61048;52.162;4.516;2022-12-10T10:15:43;10.57;;;4.45;;
72904;SDS011;61048;52.162;4.516;2022-12-10T10:18:13;15.85;;;4.88;;
72904;SDS011;61048;52.162;4.516;2022-12-10T10:20:41;12.40;;;4.72;;
72904;SDS011;61048;52.162;4.516;2022-12-10T10:23:09;15.95;;;4.80;;
72904;SDS011;61048;52.162;4.516;2022-12-10T10:25:39;10.35;;;4.88;;
72904;SDS011;61048;52.162;4.516;2022-12-10T10:28:08;11.27;;;5.20;;
72904;SDS011;61048;52.162;4.516;2022-12-10T10:30:37;10.63;;;4.65;;
72904;SDS011;61048;52.162;4.516;2022-12-10T10:33:07;9.98;;;4.28;;
72904;SDS011;61048;52.162;4.516;2022-12-10T10:35:43;14.07;;;4.47;;
72904;SDS011;61048;52.162;4.516;2022-12-10T10:38:13;12.18;;;5.80;;
72904;SDS011;61048;52.162;4.516;2022-12-10T10:40:43;11.80;;;4.60;;
72904;SDS011;61048;52.162;4.516;2022-12-10T10:43:13;13.52;;;5.35;;
72904;SDS011;61048;52.162;4.516;2022-12-10T10:45:42;12.95;;;5.00;;
72904;SDS011;61048;52.162;4.516;2022-12-10T10:48:10;12.70;;;5.10;;
72904;SDS011;61048;52.162;4.516;2022-12-10T10:50:39;11.43;;;5.75;;
72904;SDS011;61048;52.162;4.516;2022-12-10T10:53:24;12.73;;;6.32;;
72904;SDS011;61048;52.162;4.516;2022-12-10T10:55:54;10.90;;;4.60;;
72904;SDS011;61048;52.162;4.516;2022-12-10T10:58:22;11.35;;;4.70;;
72904;SDS011;61048;52.162;4.516;2022-12-10T11:00:53;11.88;;;5.07;;
72904;SDS011;61048;52.162;4.516;2022-12-10T11:03:21;10.25;;;4.78;;
72904;SDS011;61048;52.162;4.516;2022-12-10T11:05:48;11.20;;;5.18;;
72904;SDS011;61048;52.162;4.516;2022-12-10T11:08:16;10.05;;;4.85;;
72904;SDS011;61048;52.162;4.516;2022-12-10T11:10:48;9.82;;;4.80;;
72904;SDS011;61048;52.162;4.516;2022-12-10T11:13:19;10.93;;;5.20;;
72904;SDS011;61048;52.162;4.516;2022-12-10T11:15:54;11.93;;;5.40;;
72904;SDS011;61048;52.162;4.516;2022-12-10T11:18:23;9.23;;;4.65;;
72904;SDS011;61048;52.162;4.516;2022-12-10T11:21:01;12.35;;;4.97;;
72904;SDS011;61048;52.162;4.516;2022-12-10T11:23:28;10.65;;;4.80;;
72904;SDS011;61048;52.162;4.516;2022-12-10T11:26:00;10.90;;;5.05;;
72904;SDS011;61048;52.162;4.516;2022-12-10T11:28:31;10.43;;;5.30;;
72904;SDS011;61048;52.162;4.516;2022-12-10T11:31:06;11.35;;;5.57;;
72904;SDS011;61048;52.162;4.516;2022-12-10T11:33:37;9.65;;;4.70;;
72904;SDS011;61048;52.162;4.516;2022-12-10T11:36:10;11.63;;;4.80;;
72904;SDS011;61048;52.162;4.516;2022-12-10T11:38:44;11.27;;;5.50;;
72904;SDS011;61048;52.162;4.516;2022-12-10T11:41:18;10.35;;;4.72;;
72904;SDS011;61048;52.162;4.516;2022-12-10T11:43:53;10.48;;;5.18;;
72904;SDS011;61048;52.162;4.516;2022-12-10T11:49:51;11.02;;;5.53;;
72904;SDS011;61048;52.162;4.516;2022-12-10T11:52:25;9.45;;;4.47;;
72904;SDS011;61048;52.162;4.516;2022-12-10T11:55:05;9.45;;;4.85;;
72904;SDS011;61048;52.162;4.516;2022-12-10T11:57:43;10.07;;;4.80;;
72904;SDS011;61048;52.162;4.516;2022-12-10T12:00:17;10.35;;;4.43;;
72904;SDS011;61048;52.162;4.516;2022-12-10T12:02:51;10.43;;;4.95;;
72904;SDS011;61048;52.162;4.516;2022-12-10T12:06:00;11.82;;;4.78;;
72904;SDS011;61048;52.162;4.516;2022-12-10T12:08:40;9.27;;;4.95;;
72904;SDS011;61048;52.162;4.516;2022-12-10T12:11:15;10.45;;;4.75;;
72904;SDS011;61048;52.162;4.516;2022-12-10T12:13:53;13.30;;;4.90;;
72904;SDS011;61048;52.162;4.516;2022-12-10T12:16:23;7.97;;;4.55;;
72904;SDS011;61048;52.162;4.516;2022-12-10T12:18:57;8.98;;;4.70;;
72904;SDS011;61048;52.162;4.516;2022-12-10T12:23:55;8.95;;;4.75;;
72904;SDS011;61048;52.162;4.516;2022-12-10T12:26:27;10.63;;;5.28;;
72904;SDS011;61048;52.162;4.516;2022-12-10T12:29:00;11.05;;;5.93;;
72904;SDS011;61048;52.162;4.516;2022-12-10T12:31:34;12.18;;;5.22;;
72904;SDS011;61048;52.162;4.516;2022-12-10T12:34:06;10.70;;;5.50;;
72904;SDS011;61048;52.162;4.516;2022-12-10T12:36:41;11.77;;;5.45;;
72904;SDS011;61048;52.162;4.516;2022-12-10T12:39:11;11.00;;;5.10;;
72904;SDS011;61048;52.162;4.516;2022-12-10T12:41:45;10.65;;;5.63;;
72904;SDS011;61048;52.162;4.516;2022-12-10T12:44:24;12.65;;;6.13;;
72904;SDS011;61048;52.162;4.516;2022-12-10T12:46:56;11.43;;;5.55;;
72904;SDS011;61048;52.162;4.516;2022-12-10T12:49:28;11.77;;;6.90;;
72904;SDS011;61048;52.162;4.516;2022-12-10T12:52:00;13.75;;;7.55;;
72904;SDS011;61048;52.162;4.516;2022-12-10T12:54:31;11.52;;;5.20;;
72904;SDS011;61048;52.162;4.516;2022-12-10T12:57:00;11.63;;;5.68;;
72904;SDS011;61048;52.162;4.516;2022-12-10T12:59:47;9.68;;;5.18;;
72904;SDS011;61048;52.162;4.516;2022-12-10T13:02:25;11.38;;;5.13;;
72904;SDS011;61048;52.162;4.516;2022-12-10T13:05:12;11.20;;;5.05;;
72904;SDS011;61048;52.162;4.516;2022-12-10T13:10:09;10.57;;;5.05;;
72904;SDS011;61048;52.162;4.516;2022-12-10T13:12:48;14.38;;;5.95;;
72904;SDS011;61048;52.162;4.516;2022-12-10T13:15:20;14.32;;;6.13;;
72904;SDS011;61048;52.162;4.516;2022-12-10T13:18:03;15.95;;;7.07;;
72904;SDS011;61048;52.162;4.516;2022-12-10T13:20:45;13.32;;;5.35;;
72904;SDS011;61048;52.162;4.516;2022-12-10T13:23:30;19.77;;;6.35;;
72904;SDS011;61048;52.162;4.516;2022-12-10T13:25:59;14.02;;;6.13;;
72904;SDS011;61048;52.162;4.516;2022-12-10T13:28:32;15.18;;;6.18;;
72904;SDS011;61048;52.162;4.516;2022-12-10T13:34:05;14.35;;;5.82;;
72904;SDS011;61048;52.162;4.516;2022-12-10T13:40:00;14.52;;;5.50;;
72904;SDS011;61048;52.162;4.516;2022-12-10T13:42:39;14.88;;;6.13;;
72904;SDS011;61048;52.162;4.516;2022-12-10T13:45:28;16.00;;;5.78;;
72904;SDS011;61048;52.162;4.516;2022-12-10T13:48:17;15.52;;;7.57;;
72904;SDS011;61048;52.162;4.516;2022-12-10T13:50:54;14.75;;;6.00;;
72904;SDS011;61048;52.162;4.516;2022-12-10T13:53:33;15.40;;;6.18;;
72904;SDS011;61048;52.162;4.516;2022-12-10T13:56:11;14.98;;;6.65;;
72904;SDS011;61048;52.162;4.516;2022-12-10T13:58:46;17.83;;;5.78;;
72904;SDS011;61048;52.162;4.516;2022-12-10T14:01:22;14.90;;;6.70;;
72904;SDS011;61048;52.162;4.516;2022-12-10T14:04:04;12.65;;;5.63;;
72904;SDS011;61048;52.162;4.516;2022-12-10T14:06:49;13.38;;;6.20;;
72904;SDS011;61048;52.162;4.516;2022-12-10T14:09:18;16.63;;;7.97;;
72904;SDS011;61048;52.162;4.516;2022-12-10T14:11:51;14.38;;;5.88;;
72904;SDS011;61048;52.162;4.516;2022-12-10T14:14:22;14.00;;;6.68;;
72904;SDS011;61048;52.162;4.516;2022-12-10T14:16:53;14.82;;;5.40;;
72904;SDS011;61048;52.162;4.516;2022-12-10T14:19:21;16.23;;;5.90;;
72904;SDS011;61048;52.162;4.516;2022-12-10T14:21:52;14.70;;;5.55;;
72904;SDS011;61048;52.162;4.516;2022-12-10T14:24:26;12.82;;;5.63;;
72904;SDS011;61048;52.162;4.516;2022-12-10T14:26:56;13.43;;;5.55;;
72904;SDS011;61048;52.162;4.516;2022-12-10T14:29:25;16.83;;;6.93;;
72904;SDS011;61048;52.162;4.516;2022-12-10T14:31:52;14.00;;;5.47;;
72904;SDS011;61048;52.162;4.516;2022-12-10T14:34:22;14.25;;;6.13;;
72904;SDS011;61048;52.162;4.516;2022-12-10T14:36:52;18.60;;;6.70;;
72904;SDS011;61048;52.162;4.516;2022-12-10T14:39:22;15.02;;;6.47;;
72904;SDS011;61048;52.162;4.516;2022-12-10T14:41:53;24.98;;;8.20;;
72904;SDS011;61048;52.162;4.516;2022-12-10T14:44:23;16.77;;;6.50;;
72904;SDS011;61048;52.162;4.516;2022-12-10T14:46:51;15.98;;;6.35;;
72904;SDS011;61048;52.162;4.516;2022-12-10T14:49:29;14.88;;;6.68;;
72904;SDS011;61048;52.162;4.516;2022-12-10T14:51:56;17.83;;;8.05;;
72904;SDS011;61048;52.162;4.516;2022-12-10T14:54:25;15.98;;;6.88;;
72904;SDS011;61048;52.162;4.516;2022-12-10T14:56:54;14.35;;;6.40;;
72904;SDS011;61048;52.162;4.516;2022-12-10T14:59:23;15.13;;;7.38;;
72904;SDS011;61048;52.162;4.516;2022-12-10T15:01:56;16.33;;;7.25;;
72904;SDS011;61048;52.162;4.516;2022-12-10T15:04:26;15.93;;;7.00;;
72904;SDS011;61048;52.162;4.516;2022-12-10T15:07:07;15.48;;;8.55;;
72904;SDS011;61048;52.162;4.516;2022-12-10T15:09:39;16.60;;;6.82;;
72904;SDS011;61048;52.162;4.516;2022-12-10T15:12:15;17.23;;;6.78;;